Time;durP1;ratioP1;P1;durP2;ratioP2;P2;SDS_P1;SDS_P2;PMS_P1;PMS_P2;Temp;Humidity;BMP_temperature;BMP_pressure;BME280_temperature;BME280_humidity;BME280_pressure;Samples;Min_cycle;Max_cycle;Signal;HPM_P1;HPM_P2
2022/05/14 03:57:50;;;;;;;;;;;;;;;14.86;100.00;98593.69;5962951;23;19956;31
2022/05/14 04:00:19;;;;;;;;;;;;;;;14.79;99.32;98596.59;4830138;29;19953;-71
2022/05/14 04:02:47;;;;;;;;;;;;;;;14.76;99.96;98594.63;4815509;29;20365;-71
2022/05/14 04:05:15;;;;;;;;;;;;;;;14.79;100.00;98599.41;4830489;29;19956;-71
2022/05/14 04:07:44;;;;;;;;;;;;;;;14.82;100.00;98606.19;4814995;29;19955;-71
2022/05/14 04:10:12;;;;;;;;;;;;;;;14.80;99.32;98606.63;4815397;29;19957;-71
2022/05/14 04:12:40;;;;;;;;;;;;;;;14.85;97.72;98606.16;4815308;29;19958;-71
2022/05/14 04:15:08;;;;;;;;;;;;;;;14.88;99.65;98616.59;4831199;29;19951;-71
2022/05/14 04:17:35;;;;;;;;;;;;;;;14.90;97.69;98616.16;4830471;29;19945;-71
2022/05/14 04:20:04;;;;;;;;;;;;;;;14.90;97.31;98619.78;4829981;29;19972;-71
2022/05/14 04:22:32;;;;;;;;;;;;;;;14.93;97.11;98618.97;4830162;29;19952;-71
2022/05/14 04:25:00;;;;;;;;;;;;;;;15.07;95.41;98621.59;4822520;29;19958;-71
2022/05/14 04:27:27;;;;;;;;;;;;;;;15.31;93.75;98616.09;4826682;29;19950;-71
2022/05/14 04:29:55;;;;;;;;;;;;;;;15.48;96.03;98624.34;4814244;29;19956;-71
2022/05/14 04:32:22;;;;;;;;;;;;;;;15.69;93.71;98623.28;4811774;29;19948;-72
2022/05/14 04:34:50;;;;;;;;;;;;;;;15.97;92.82;98624.88;4814780;29;19984;-72
2022/05/14 04:37:17;;;;;;;;;;;;;;;16.11;90.46;98622.66;4830361;29;19948;-72
2022/05/14 04:39:44;;;;;;;;;;;;;;;16.31;91.42;98626.31;4830017;29;19966;-72
2022/05/14 04:42:14;;;;;;;;;;;;;;;16.51;91.77;98631.25;4829832;29;19955;-72
2022/05/14 04:44:41;;;;;;;;;;;;;;;16.51;91.10;98631.25;4815076;29;19949;-72
2022/05/14 04:47:10;;;;;;;;;;;;;;;16.39;92.25;98629.84;4829751;29;19945;-72
2022/05/14 04:49:40;;;;;;;;;;;;;;;16.33;94.84;98629.50;4829909;29;19946;-72
2022/05/14 04:52:08;;;;;;;;;;;;;;;16.32;98.85;98630.75;4829942;29;19954;-72
2022/05/14 04:54:36;;;;;;;;;;;;;;;16.59;95.45;98635.56;4829463;29;19956;-72
2022/05/14 04:57:05;;;;;;;;;;;;;;;17.19;91.78;98635.25;4830263;29;19953;-72
2022/05/14 04:59:33;;;;;;;;;;;;;;;17.92;85.35;98636.97;4829420;29;19979;-73
2022/05/14 05:04:48;;;;;;;;;;;;;;;18.07;87.76;98636.19;4814051;29;19950;-72
2022/05/14 05:07:15;;;;;;;;;;;;;;;18.46;87.90;98635.31;4829082;29;19950;-72
2022/05/14 05:09:45;;;;;;;;;;;;;;;19.33;84.27;98627.69;4820830;29;20359;-72
2022/05/14 05:12:13;;;;;;;;;;;;;;;20.14;78.96;98628.91;4828430;29;19956;-72
2022/05/14 05:14:41;;;;;;;;;;;;;;;20.88;73.89;98640.63;4827072;29;19954;-72
2022/05/14 05:17:08;;;;;;;;;;;;;;;21.73;60.74;98648.16;4829244;29;19950;-73
2022/05/14 05:19:36;;;;;;;;;;;;;;;22.35;58.95;98666.09;4829129;29;19972;-70
2022/05/14 05:22:03;;;;;;;;;;;;;;;22.87;49.13;98658.22;4829869;29;20236;-70
2022/05/14 05:24:31;;;;;;;;;;;;;;;23.27;52.56;98672.41;4829227;29;19954;-71
2022/05/14 05:26:58;;;;;;;;;;;;;;;23.52;51.83;98657.06;4830271;29;19969;-71
2022/05/14 05:29:26;;;;;;;;;;;;;;;23.67;50.01;98662.91;4829463;29;19957;-71
2022/05/14 05:31:53;;;;;;;;;;;;;;;23.61;51.48;98667.66;4829652;29;19988;-70
2022/05/14 05:34:20;;;;;;;;;;;;;;;23.33;51.29;98666.81;4829745;29;19960;-71
2022/05/14 05:36:47;;;;;;;;;;;;;;;22.89;53.27;98669.94;4830122;29;19955;-70
2022/05/14 05:39:14;;;;;;;;;;;;;;;22.59;53.76;98662.25;4829053;29;19982;-71
2022/05/14 05:41:42;;;;;;;;;;;;;;;22.55;49.04;98666.47;4830443;29;20246;-71
2022/05/14 05:44:09;;;;;;;;;;;;;;;22.28;51.23;98664.31;4826628;29;19955;-71
2022/05/14 05:46:36;;;;;;;;;;;;;;;22.09;50.23;98663.44;4829355;29;19949;-71
2022/05/14 05:49:05;;;;;;;;;;;;;;;22.02;52.97;98655.19;4829031;29;19955;-70
2022/05/14 05:51:32;;;;;;;;;;;;;;;21.64;53.79;98657.41;4829901;29;20281;-70
2022/05/14 05:56:51;;;;;;;;;;;;;;;21.28;56.76;98660.78;4827458;29;20336;-70
2022/05/14 05:59:20;;;;;;;;;;;;;;;21.04;58.48;98670.97;4829231;29;19970;-70
2022/05/14 06:01:47;;;;;;;;;;;;;;;20.95;59.98;98674.53;4829318;29;19951;-70
2022/05/14 06:04:14;;;;;;;;;;;;;;;20.86;64.12;98671.56;4812922;29;19962;-71
2022/05/14 06:06:42;;;;;;;;;;;;;;;20.93;64.43;98677.00;4828686;29;19949;-70
2022/05/14 06:09:10;;;;;;;;;;;;;;;20.68;65.71;98676.28;4829422;29;20322;-70
2022/05/14 06:11:38;;;;;;;;;;;;;;;20.76;66.44;98678.41;4829604;29;20021;-70
2022/05/14 06:14:05;;;;;;;;;;;;;;;20.65;66.61;98680.81;4829713;29;19948;-70
2022/05/14 06:16:33;;;;;;;;;;;;;;;20.74;68.38;98682.97;4828928;29;19960;-71
2022/05/14 06:19:05;;;;;;;;;;;;;;;20.64;70.40;98684.13;4827277;29;20521;-70
2022/05/14 06:21:36;;;;;;;;;;;;;;;20.69;70.78;98692.84;4827290;29;19960;-71
2022/05/14 06:24:04;;;;;;;;;;;;;;;20.82;74.33;98696.50;4827725;29;19962;-70
2022/05/14 06:26:31;;;;;;;;;;;;;;;20.84;77.57;98698.88;4827808;29;19952;-70
2022/05/14 06:28:59;;;;;;;;;;;;;;;20.90;78.35;98699.88;4828080;29;19949;-70
2022/05/14 06:31:27;;;;;;;;;;;;;;;20.80;77.34;98701.84;4828953;29;19950;-70
2022/05/14 06:33:54;;;;;;;;;;;;;;;20.85;77.49;98698.41;4813298;29;19954;-71
2022/05/14 06:36:21;;;;;;;;;;;;;;;21.07;74.01;98707.06;4829133;29;19947;-70
2022/05/14 06:38:48;;;;;;;;;;;;;;;21.14;71.71;98703.16;4828666;29;19954;-70
2022/05/14 06:41:16;;;;;;;;;;;;;;;21.18;70.55;98703.81;4828398;29;19957;-70
2022/05/14 06:43:44;;;;;;;;;;;;;;;21.23;70.15;98701.19;4828426;29;20244;-70
2022/05/14 06:46:11;;;;;;;;;;;;;;;21.31;71.39;98702.53;4828690;29;19974;-70
2022/05/14 06:48:39;;;;;;;;;;;;;;;21.32;71.67;98697.66;4828828;29;20028;-70
2022/05/14 06:51:08;;;;;;;;;;;;;;;21.33;69.13;98697.19;4828157;29;19955;-70
2022/05/14 06:53:38;;;;;;;;;;;;;;;21.14;72.70;98698.28;4828151;29;20359;-70
2022/05/14 06:56:06;;;;;;;;;;;;;;;21.07;74.78;98697.72;4829011;29;19963;-71
2022/05/14 06:58:36;;;;;;;;;;;;;;;21.07;77.15;98698.53;4828890;29;20399;-71
2022/05/14 07:01:04;;;;;;;;;;;;;;;21.14;78.52;98700.31;4829469;29;19972;-71
2022/05/14 07:09:06;;;;;;;;;;;;;;;21.47;71.07;98693.03;4828316;29;19963;-71
2022/05/14 07:11:35;;;;;;;;;;;;;;;21.73;72.96;98697.34;4828137;29;19965;-71
2022/05/14 07:14:02;;;;;;;;;;;;;;;21.91;72.58;98700.34;4828692;29;19957;-71
2022/05/14 07:16:29;;;;;;;;;;;;;;;22.13;73.19;98703.97;4828877;29;20350;-71
2022/05/14 07:18:57;;;;;;;;;;;;;;;22.28;72.60;98695.66;4828841;29;19957;-70
2022/05/14 07:21:27;;;;;;;;;;;;;;;22.35;68.13;98700.31;4828587;29;19947;-71
2022/05/14 07:23:55;;;;;;;;;;;;;;;22.49;65.78;98697.69;4828520;29;19950;-71
2022/05/14 07:26:22;;;;;;;;;;;;;;;22.48;67.05;98690.38;4828619;29;19955;-71
2022/05/14 07:28:49;;;;;;;;;;;;;;;22.55;66.84;98698.63;4828178;29;19951;-71
2022/05/14 07:31:17;;;;;;;;;;;;;;;22.55;67.47;98695.78;4828284;29;19958;-71
2022/05/14 07:33:44;;;;;;;;;;;;;;;22.51;69.87;98698.00;4828614;29;19963;-71
2022/05/14 07:36:13;;;;;;;;;;;;;;;22.48;72.49;98696.06;4828566;29;19954;-71
2022/05/14 07:38:41;;;;;;;;;;;;;;;22.50;72.76;98696.41;4828538;29;19954;-71
2022/05/14 07:41:08;;;;;;;;;;;;;;;22.52;76.15;98693.09;4828126;29;19970;-71
2022/05/14 07:43:37;;;;;;;;;;;;;;;22.54;74.83;98690.56;4828465;29;20444;-71
2022/05/14 07:46:07;;;;;;;;;;;;;;;22.67;74.82;98689.22;4828977;29;20321;-71
2022/05/14 07:48:36;;;;;;;;;;;;;;;22.73;78.64;98684.50;4828047;29;19982;-71
2022/05/14 07:51:05;;;;;;;;;;;;;;;22.74;76.49;98682.44;4828367;29;19961;-71
2022/05/14 07:53:32;;;;;;;;;;;;;;;22.83;79.18;98679.59;4826848;29;19952;-71
2022/05/14 07:56:01;;;;;;;;;;;;;;;22.84;76.40;98681.97;4828153;29;19958;-71
2022/05/14 07:58:28;;;;;;;;;;;;;;;22.96;76.56;98685.19;4828140;29;19972;-71
2022/05/14 08:00:56;;;;;;;;;;;;;;;23.05;76.16;98688.03;4828906;29;19979;-71
2022/05/14 08:03:24;;;;;;;;;;;;;;;23.11;72.31;98689.03;4831776;29;19959;-71
2022/05/14 08:06:10;;;;;;;;;;;;;;;23.32;68.98;98682.38;4831251;29;19960;-71
2022/05/14 08:08:38;;;;;;;;;;;;;;;23.44;65.12;98681.47;4831266;29;19959;-71
2022/05/14 08:11:05;;;;;;;;;;;;;;;23.24;66.91;98687.59;4830714;29;19954;-71
2022/05/14 08:13:34;;;;;;;;;;;;;;;23.39;68.70;98690.66;4831406;29;19952;-71
2022/05/14 08:16:02;;;;;;;;;;;;;;;23.44;67.02;98695.75;4831279;29;19961;-71
2022/05/14 08:18:32;;;;;;;;;;;;;;;23.62;65.91;98689.25;4831346;29;19955;-71
2022/05/14 08:24:30;;;;;;;;;;;;;;;23.52;64.29;98691.31;4822867;29;20255;-71
2022/05/14 08:26:35;;;;;;;;;;;;;;;23.75;68.53;98693.50;4813004;29;19956;-71
2022/05/14 08:29:02;;;;;;;;;;;;;;;23.78;68.95;98691.75;4812915;29;19978;-71
2022/05/14 08:31:30;;;;;;;;;;;;;;;23.92;67.29;98691.09;4813053;29;19956;-71
2022/05/14 08:33:57;;;;;;;;;;;;;;;24.01;67.57;98689.00;4812067;29;19958;-71
2022/05/14 08:36:25;;;;;;;;;;;;;;;24.11;66.96;98699.19;4812819;29;20369;-71
2022/05/14 08:38:54;;;;;;;;;;;;;;;24.21;69.88;98693.47;4812913;29;19952;-71
2022/05/14 08:41:22;;;;;;;;;;;;;;;24.25;68.88;98683.44;4812907;29;19977;-71
2022/05/14 08:43:52;;;;;;;;;;;;;;;24.18;66.97;98696.00;4812852;29;19948;-71
2022/05/14 08:46:21;;;;;;;;;;;;;;;24.09;64.79;98692.38;4812701;29;19953;-71
2022/05/14 08:48:50;;;;;;;;;;;;;;;23.73;62.94;98693.19;4812507;29;19958;-71
2022/05/14 08:51:26;;;;;;;;;;;;;;;23.67;69.04;98686.53;4812593;29;19954;-71
2022/05/14 08:53:53;;;;;;;;;;;;;;;23.36;62.76;98691.59;4812530;29;19960;-71
2022/05/14 08:56:21;;;;;;;;;;;;;;;23.84;61.92;98687.00;4812373;29;19954;-71
2022/05/14 08:59:01;;;;;;;;;;;;;;;23.99;61.12;98690.75;4821882;29;19972;-71
2022/05/14 09:01:31;;;;;;;;;;;;;;;24.14;65.15;98680.28;4830543;29;19972;-71
2022/05/14 09:03:58;;;;;;;;;;;;;;;24.27;65.58;98683.75;4814837;29;19952;-71
2022/05/14 09:06:26;;;;;;;;;;;;;;;24.39;65.55;98684.81;4830411;29;19956;-71
2022/05/14 09:08:53;;;;;;;;;;;;;;;24.55;66.35;98688.09;4830422;29;19957;-71
2022/05/14 09:11:25;;;;;;;;;;;;;;;24.51;63.19;98684.63;4830657;29;19983;-71
2022/05/14 09:13:54;;;;;;;;;;;;;;;24.49;65.31;98681.47;4829478;29;19949;-71
2022/05/14 09:16:24;;;;;;;;;;;;;;;24.60;64.61;98675.22;4830037;29;19952;-71
2022/05/14 09:18:53;;;;;;;;;;;;;;;24.65;62.50;98680.25;4830019;29;19957;-71
2022/05/14 09:21:21;;;;;;;;;;;;;;;24.68;63.11;98680.09;4830644;29;19977;-71
2022/05/14 09:23:54;;;;;;;;;;;;;;;24.73;63.95;98681.50;4830412;29;19946;-71
2022/05/14 09:26:27;;;;;;;;;;;;;;;24.64;64.66;98675.81;4829698;29;19962;-71
2022/05/14 09:28:55;;;;;;;;;;;;;;;24.69;67.37;98672.31;4829944;29;19951;-71
2022/05/14 09:31:28;;;;;;;;;;;;;;;24.76;58.12;98669.91;4830051;29;19961;-71
2022/05/14 09:34:16;;;;;;;;;;;;;;;24.77;62.99;98677.22;4813849;29;19951;-71
2022/05/14 09:36:45;;;;;;;;;;;;;;;24.79;67.58;98673.88;4830069;29;20248;-71
2022/05/14 09:39:15;;;;;;;;;;;;;;;24.86;67.59;98672.72;4829461;29;19956;-71
2022/05/14 09:41:45;;;;;;;;;;;;;;;24.96;66.31;98669.34;4830619;29;19966;-71
2022/05/14 09:44:18;;;;;;;;;;;;;;;25.07;65.26;98663.84;4829633;29;20369;-71
2022/05/14 09:46:46;;;;;;;;;;;;;;;24.84;67.45;98669.56;4829305;29;19957;-71
2022/05/14 09:49:21;;;;;;;;;;;;;;;24.76;64.83;98671.94;4829153;29;19951;-71
2022/05/14 09:52:00;;;;;;;;;;;;;;;24.83;70.47;98663.03;4830039;29;20235;-71
2022/05/14 09:54:41;;;;;;;;;;;;;;;24.92;65.78;98660.13;4827403;29;19952;-71
2022/05/14 09:57:26;;;;;;;;;;;;;;;24.82;77.14;98667.16;4827885;29;19949;-71
2022/05/14 10:00:00;;;;;;;;;;;;;;;24.88;73.08;98653.78;4829364;29;20265;-71
2022/05/14 10:02:44;;;;;;;;;;;;;;;24.95;71.44;98649.78;4829697;29;20355;-71
2022/05/14 10:05:21;;;;;;;;;;;;;;;24.89;72.35;98655.41;4830501;29;20199;-71
2022/05/14 10:07:54;;;;;;;;;;;;;;;25.04;75.97;98652.59;4829244;29;19960;-71
2022/05/14 10:10:34;;;;;;;;;;;;;;;25.05;70.75;98657.03;4829543;29;19966;-71
2022/05/14 10:13:04;;;;;;;;;;;;;;;25.04;70.89;98649.75;4829491;29;19952;-71
2022/05/14 10:15:32;;;;;;;;;;;;;;;25.10;67.38;98645.69;4829173;29;19956;-71
2022/05/14 10:17:59;;;;;;;;;;;;;;;25.03;77.65;98646.06;4829486;29;20360;-71
2022/05/14 10:20:35;;;;;;;;;;;;;;;25.15;74.23;98639.31;4829132;29;19956;-71
2022/05/14 10:29:02;;;;;;;;;;;;;;;25.08;75.29;98638.88;4829165;29;19946;-71
2022/05/14 10:31:35;;;;;;;;;;;;;;;25.16;77.73;98640.09;4829925;29;19948;-71
2022/05/14 10:34:07;;;;;;;;;;;;;;;25.20;81.09;98635.78;4828921;29;20240;-71
2022/05/14 10:36:37;;;;;;;;;;;;;;;24.90;78.10;98639.78;4829208;29;20338;-71
2022/05/14 10:39:09;;;;;;;;;;;;;;;24.87;83.85;98643.63;4828807;29;20033;-71
2022/05/14 10:41:44;;;;;;;;;;;;;;;24.79;87.45;98634.63;4829090;29;19969;-71
2022/05/14 10:44:26;;;;;;;;;;;;;;;24.83;87.93;98625.84;4829249;29;19946;-71
2022/05/14 10:46:56;;;;;;;;;;;;;;;24.89;93.55;98632.50;4828896;29;19949;-71
2022/05/14 10:49:44;;;;;;;;;;;;;;;24.98;96.17;98634.50;4828902;29;20246;-71
2022/05/14 10:52:15;;;;;;;;;;;;;;;24.89;85.27;98629.66;4828700;29;19951;-71
2022/05/14 10:54:44;;;;;;;;;;;;;;;24.98;85.32;98629.56;4827459;29;19954;-71
2022/05/14 10:57:14;;;;;;;;;;;;;;;24.96;100.00;98629.28;4826777;29;19954;-71
2022/05/14 10:59:55;;;;;;;;;;;;;;;24.89;94.39;98621.06;4828130;29;19976;-72
2022/05/14 11:02:27;;;;;;;;;;;;;;;25.01;92.49;98622.09;4826087;29;19978;-73
2022/05/14 11:04:55;;;;;;;;;;;;;;;25.15;100.00;98622.13;4826348;29;19956;-71
2022/05/14 11:07:30;;;;;;;;;;;;;;;25.23;95.97;98622.56;4828146;29;20375;-71
2022/05/14 11:10:06;;;;;;;;;;;;;;;25.15;92.38;98619.28;4828123;29;19953;-71
2022/05/14 11:12:34;;;;;;;;;;;;;;;25.06;98.02;98621.41;4826479;29;20329;-71
2022/05/14 11:15:03;;;;;;;;;;;;;;;25.10;98.34;98616.28;4827851;29;19959;-71
2022/05/14 11:17:36;;;;;;;;;;;;;;;25.17;98.06;98616.72;4828568;29;19960;-71
2022/05/14 11:20:03;;;;;;;;;;;;;;;25.01;93.92;98619.22;4828353;29;19964;-71
2022/05/14 11:22:32;;;;;;;;;;;;;;;24.91;95.04;98611.97;4828311;29;19975;-71
2022/05/14 11:25:08;;;;;;;;;;;;;;;24.94;92.86;98603.22;4828675;29;19953;-71
2022/05/14 11:27:40;;;;;;;;;;;;;;;24.68;98.28;98611.47;4812172;29;20349;-70
2022/05/14 11:30:13;;;;;;;;;;;;;;;24.69;99.99;98610.19;4827982;29;19957;-71
2022/05/14 11:32:44;;;;;;;;;;;;;;;24.97;95.70;98615.75;4823779;29;19952;-71
2022/05/14 11:35:11;;;;;;;;;;;;;;;24.91;92.59;98609.13;4828037;29;20246;-71
2022/05/14 11:37:43;;;;;;;;;;;;;;;24.91;97.09;98601.34;4831039;29;19973;-71
2022/05/14 11:40:25;;;;;;;;;;;;;;;24.77;97.39;98610.66;4831302;29;19956;-71
2022/05/14 11:43:07;;;;;;;;;;;;;;;24.69;92.85;98612.25;4831657;29;19977;-72
2022/05/14 11:45:35;;;;;;;;;;;;;;;24.64;88.63;98610.06;4832553;29;19959;-71
2022/05/14 11:48:03;;;;;;;;;;;;;;;24.53;88.09;98604.88;4830912;29;20020;-72
2022/05/14 11:50:33;;;;;;;;;;;;;;;24.44;92.61;98604.91;4831848;29;20241;-72
2022/05/14 11:53:00;;;;;;;;;;;;;;;24.44;91.08;98598.41;4831028;29;20271;-71
2022/05/14 11:55:32;;;;;;;;;;;;;;;24.38;89.27;98606.06;4831412;29;19955;-71
2022/05/14 11:58:09;;;;;;;;;;;;;;;24.57;89.26;98601.84;4831509;29;19972;-71
2022/05/14 12:00:36;;;;;;;;;;;;;;;24.66;96.27;98599.72;4831106;29;19954;-71
2022/05/14 12:03:12;;;;;;;;;;;;;;;24.63;93.83;98597.03;4830125;29;19966;-71
2022/05/14 12:05:52;;;;;;;;;;;;;;;24.61;90.03;98591.81;4825892;29;19962;-71
2022/05/14 12:08:25;;;;;;;;;;;;;;;24.53;89.20;98598.34;4830541;29;19957;-71
2022/05/14 12:10:59;;;;;;;;;;;;;;;24.60;90.11;98593.06;4831132;29;20210;-71
2022/05/14 12:13:32;;;;;;;;;;;;;;;24.77;89.88;98587.78;4830373;29;20245;-71
2022/05/14 12:16:00;;;;;;;;;;;;;;;24.83;100.00;98582.94;4831016;29;19958;-71
2022/05/14 12:18:28;;;;;;;;;;;;;;;24.85;92.15;98580.38;4830761;29;19960;-71
2022/05/14 12:20:57;;;;;;;;;;;;;;;24.87;91.53;98583.53;4830579;29;19957;-71
2022/05/14 12:23:37;;;;;;;;;;;;;;;24.88;88.71;98576.56;4830385;29;19968;-71
2022/05/14 12:26:06;;;;;;;;;;;;;;;24.86;87.72;98581.97;4831094;29;19957;-71
2022/05/14 12:28:35;;;;;;;;;;;;;;;24.79;89.25;98573.78;4829814;29;19966;-71
2022/05/14 12:33:58;;;;;;;;;;;;;;;24.90;88.58;98571.13;4826851;29;19959;-71
2022/05/14 12:36:27;;;;;;;;;;;;;;;24.92;94.33;98565.72;4830477;29;19957;-71
2022/05/14 12:38:55;;;;;;;;;;;;;;;24.87;94.51;98563.53;4814164;29;20356;-71
2022/05/14 12:41:22;;;;;;;;;;;;;;;24.91;98.30;98557.63;4830103;29;19948;-71
2022/05/14 12:43:50;;;;;;;;;;;;;;;24.99;99.96;98551.03;4830492;29;19964;-71
2022/05/14 12:46:19;;;;;;;;;;;;;;;24.99;100.00;98555.97;4830603;29;19959;-71
2022/05/14 12:48:51;;;;;;;;;;;;;;;25.01;96.98;98553.41;4829313;29;19954;-71
2022/05/14 12:51:19;;;;;;;;;;;;;;;24.99;94.66;98551.03;4830184;29;19957;-71
2022/05/14 12:53:47;;;;;;;;;;;;;;;25.01;93.85;98547.69;4829618;29;19957;-71
2022/05/14 12:56:15;;;;;;;;;;;;;;;25.01;91.94;98548.50;4830110;29;19958;-71
2022/05/14 12:58:43;;;;;;;;;;;;;;;24.88;90.86;98542.22;4830589;29;20269;-71
2022/05/14 13:01:11;;;;;;;;;;;;;;;24.93;89.96;98540.75;4830455;29;19953;-71
2022/05/14 13:03:52;;;;;;;;;;;;;;;24.91;89.75;98544.13;4830296;29;19984;-71
2022/05/14 13:06:24;;;;;;;;;;;;;;;24.95;91.62;98532.47;4830793;29;19949;-71
2022/05/14 13:08:54;;;;;;;;;;;;;;;25.06;94.57;98527.00;4830520;29;19952;-71
2022/05/14 13:11:23;;;;;;;;;;;;;;;25.18;99.59;98529.56;4830023;29;20373;-71
2022/05/14 13:13:56;;;;;;;;;;;;;;;25.25;89.28;98528.41;4828886;29;19952;-71
2022/05/14 13:16:25;;;;;;;;;;;;;;;25.23;90.96;98519.50;4827514;29;19956;-71
2022/05/14 13:19:15;;;;;;;;;;;;;;;25.10;83.46;98519.78;4830323;29;19956;-71
2022/05/14 13:21:47;;;;;;;;;;;;;;;25.17;89.57;98515.75;4811471;29;19954;-71
2022/05/14 13:24:27;;;;;;;;;;;;;;;25.19;92.16;98511.09;4828726;29;19957;-71
2022/05/14 13:26:56;;;;;;;;;;;;;;;25.19;82.17;98513.97;4830490;29;19954;-71
2022/05/14 13:29:23;;;;;;;;;;;;;;;25.14;84.39;98517.50;4829838;29;19948;-71
2022/05/14 13:31:51;;;;;;;;;;;;;;;25.18;86.75;98512.41;4829738;29;19951;-71
2022/05/14 13:37:27;;;;;;;;;;;;;;;25.13;87.21;98506.56;4830064;29;20337;-71
2022/05/14 13:39:55;;;;;;;;;;;;;;;25.12;86.36;98496.38;4830289;29;19943;-71
2022/05/14 13:42:22;;;;;;;;;;;;;;;25.18;87.41;98500.97;4829780;29;19974;-71
2022/05/14 13:44:57;;;;;;;;;;;;;;;25.21;85.98;98507.78;4829416;29;19974;-71
2022/05/14 13:47:24;;;;;;;;;;;;;;;25.36;83.46;98497.91;4829530;29;19957;-71
2022/05/14 13:49:53;;;;;;;;;;;;;;;25.41;83.09;98496.41;4829660;29;19952;-70
2022/05/14 13:52:25;;;;;;;;;;;;;;;25.37;82.57;98496.63;4829730;29;19969;-71
2022/05/14 13:55:03;;;;;;;;;;;;;;;25.30;84.25;98487.63;4830285;29;19954;-71
2022/05/14 13:57:30;;;;;;;;;;;;;;;25.31;86.00;98495.72;4830263;29;19952;-71
2022/05/14 14:00:03;;;;;;;;;;;;;;;25.26;88.12;98492.78;4829880;29;19988;-71
2022/05/14 14:02:39;;;;;;;;;;;;;;;25.31;80.84;98487.13;4829312;29;20273;-71
2022/05/14 14:05:12;;;;;;;;;;;;;;;25.27;85.62;98477.16;4828953;29;19952;-71
2022/05/14 14:07:39;;;;;;;;;;;;;;;25.28;89.08;98470.97;4829545;29;19955;-71
2022/05/14 14:10:10;;;;;;;;;;;;;;;25.31;92.31;98475.69;4828753;29;19944;-71
2022/05/14 14:12:37;;;;;;;;;;;;;;;25.28;85.82;98470.97;4829674;29;19961;-71
2022/05/14 14:15:06;;;;;;;;;;;;;;;25.31;86.74;98467.09;4829444;29;19956;-71
2022/05/14 14:17:34;;;;;;;;;;;;;;;25.41;86.55;98474.31;4829690;29;20331;-71
2022/05/14 14:20:02;;;;;;;;;;;;;;;25.49;80.42;98468.22;4829335;29;19950;-71
2022/05/14 14:22:29;;;;;;;;;;;;;;;25.52;81.62;98475.81;4829260;29;19971;-71
2022/05/14 14:24:57;;;;;;;;;;;;;;;25.58;88.33;98470.97;4827956;29;19953;-71
2022/05/14 14:27:26;;;;;;;;;;;;;;;25.44;86.07;98470.50;4829049;29;19957;-71
2022/05/14 14:29:57;;;;;;;;;;;;;;;25.28;81.99;98465.25;4828744;29;19953;-71
2022/05/14 14:32:26;;;;;;;;;;;;;;;25.22;81.46;98460.69;4828966;29;19951;-70
2022/05/14 14:34:54;;;;;;;;;;;;;;;25.19;82.81;98456.72;4812746;29;19962;-71
2022/05/14 14:37:21;;;;;;;;;;;;;;;25.13;86.58;98458.72;4828657;29;20335;-71
2022/05/14 14:39:50;;;;;;;;;;;;;;;25.14;86.17;98453.75;4828829;29;19959;-71
2022/05/14 14:42:17;;;;;;;;;;;;;;;25.07;92.49;98448.44;4828435;29;19951;-71
2022/05/14 14:44:45;;;;;;;;;;;;;;;25.04;83.97;98455.91;4829254;29;20371;-71
2022/05/14 14:47:12;;;;;;;;;;;;;;;25.13;87.87;98450.13;4828848;29;20357;-71
2022/05/14 14:49:40;;;;;;;;;;;;;;;25.25;81.89;98451.13;4828940;29;19958;-71
2022/05/14 14:52:07;;;;;;;;;;;;;;;25.20;85.87;98446.06;4828735;29;19963;-71
2022/05/14 14:54:34;;;;;;;;;;;;;;;25.21;90.90;98444.81;4827939;29;19962;-71
2022/05/14 14:57:02;;;;;;;;;;;;;;;25.28;95.64;98442.34;4828324;29;19950;-71
2022/05/14 14:59:30;;;;;;;;;;;;;;;25.23;85.57;98442.22;4827323;29;19986;-71
2022/05/14 15:02:00;;;;;;;;;;;;;;;25.16;80.35;98439.75;4827869;29;20420;-71
2022/05/14 15:04:32;;;;;;;;;;;;;;;25.35;78.74;98435.41;4828595;29;19976;-71
2022/05/14 15:07:02;;;;;;;;;;;;;;;25.23;83.81;98437.31;4828712;29;19950;-71
2022/05/14 15:09:29;;;;;;;;;;;;;;;25.23;88.68;98442.22;4828446;29;19966;-71
2022/05/14 15:11:56;;;;;;;;;;;;;;;25.29;81.10;98441.03;4830212;29;20340;-71
2022/05/14 15:14:25;;;;;;;;;;;;;;;25.22;78.38;98435.72;4831911;29;19955;-71
2022/05/14 15:16:52;;;;;;;;;;;;;;;25.13;78.14;98432.16;4831718;29;20239;-71
2022/05/14 15:19:19;;;;;;;;;;;;;;;25.10;77.08;98419.63;4832335;29;19953;-71
2022/05/14 15:21:47;;;;;;;;;;;;;;;25.03;77.27;98431.47;4832191;29;19952;-71
2022/05/14 15:24:14;;;;;;;;;;;;;;;25.03;80.32;98424.94;4816667;29;19977;-71
2022/05/14 15:26:41;;;;;;;;;;;;;;;25.00;82.78;98421.00;4831451;29;20274;-71
2022/05/14 15:29:10;;;;;;;;;;;;;;;24.97;85.21;98426.91;4831236;29;20267;-71
2022/05/14 15:31:50;;;;;;;;;;;;;;;25.03;86.81;98422.88;4832090;29;19947;-71
2022/05/14 15:34:18;;;;;;;;;;;;;;;25.05;87.47;98425.25;4830703;29;19953;-71
2022/05/14 15:36:47;;;;;;;;;;;;;;;24.98;86.09;98423.56;4830491;29;19955;-71
2022/05/14 15:39:15;;;;;;;;;;;;;;;25.04;87.15;98418.72;4830399;29;20338;-71
2022/05/14 15:41:44;;;;;;;;;;;;;;;25.12;84.45;98421.97;4828557;29;19953;-71
2022/05/14 15:44:19;;;;;;;;;;;;;;;25.06;83.77;98429.69;4813543;29;19969;-71
2022/05/14 15:46:49;;;;;;;;;;;;;;;25.05;84.12;98423.19;4820912;29;19952;-71
2022/05/14 15:49:20;;;;;;;;;;;;;;;25.05;87.84;98425.25;4830356;29;19956;-70
2022/05/14 15:51:47;;;;;;;;;;;;;;;25.02;89.13;98424.16;4830262;29;19960;-70
2022/05/14 15:54:15;;;;;;;;;;;;;;;25.10;83.21;98424.56;4830814;29;19964;-70
2022/05/14 15:56:43;;;;;;;;;;;;;;;25.00;83.86;98426.72;4831088;29;19952;-71
2022/05/14 15:59:11;;;;;;;;;;;;;;;24.88;88.95;98418.41;4830515;29;19981;-71
2022/05/14 16:01:39;;;;;;;;;;;;;;;24.80;87.43;98415.94;4814005;29;19952;-71
2022/05/14 16:04:07;;;;;;;;;;;;;;;24.83;84.64;98424.81;4812846;29;20387;-71
2022/05/14 16:06:40;;;;;;;;;;;;;;;24.76;88.21;98420.25;4815412;29;19957;-71
2022/05/14 16:09:07;;;;;;;;;;;;;;;24.75;85.56;98422.31;4831021;29;20240;-70
2022/05/14 16:15:52;;;;;;;;;;;;;;;24.69;90.66;98415.72;4831433;29;19964;-70
2022/05/14 16:17:25;;;;;;;;;;;;;;;24.65;88.72;98408.59;4813371;29;19952;-70
2022/05/14 16:19:53;;;;;;;;;;;;;;;24.66;92.23;98407.31;4812860;29;19959;-70
2022/05/14 16:22:20;;;;;;;;;;;;;;;24.65;91.56;98405.72;4827558;29;20351;-71
2022/05/14 16:24:47;;;;;;;;;;;;;;;24.63;90.61;98414.00;4814034;29;19960;-71
2022/05/14 16:27:15;;;;;;;;;;;;;;;24.68;91.45;98413.34;4829701;29;20210;-71
2022/05/14 16:32:28;;;;;;;;;;;;;;;24.62;94.16;98401.00;4829609;29;19954;-71
2022/05/14 16:34:56;;;;;;;;;;;;;;;24.57;93.69;98399.63;4830057;29;19947;-71
2022/05/14 16:37:23;;;;;;;;;;;;;;;24.54;97.88;98389.16;4830620;29;19957;-71
2022/05/14 16:39:51;;;;;;;;;;;;;;;24.55;93.48;98396.44;4825462;29;19965;-71
2022/05/14 16:42:18;;;;;;;;;;;;;;;24.46;93.49;98410.81;4830094;29;19973;-71
2022/05/14 16:44:49;;;;;;;;;;;;;;;24.53;91.95;98409.66;4827710;29;19969;-71
2022/05/14 16:47:17;;;;;;;;;;;;;;;24.44;94.13;98412.59;4830508;29;19953;-71
2022/05/14 16:49:44;;;;;;;;;;;;;;;24.43;95.29;98411.78;4830096;29;19959;-71
2022/05/14 16:52:14;;;;;;;;;;;;;;;24.39;96.30;98404.69;4829897;29;19983;-71
2022/05/14 16:54:43;;;;;;;;;;;;;;;24.33;94.91;98412.38;4828874;29;20249;-71
2022/05/14 16:57:10;;;;;;;;;;;;;;;24.32;96.28;98414.44;4829098;29;19987;-71
2022/05/14 16:59:38;;;;;;;;;;;;;;;24.29;96.01;98417.47;4821356;29;19973;-71
2022/05/14 17:02:07;;;;;;;;;;;;;;;24.27;95.42;98415.09;4829176;29;19969;-71
2022/05/14 17:04:35;;;;;;;;;;;;;;;24.22;97.04;98409.25;4828261;29;19968;-71
2022/05/14 17:07:03;;;;;;;;;;;;;;;24.22;98.14;98414.97;4827966;29;20639;-70
2022/05/14 17:09:30;;;;;;;;;;;;;;;24.16;97.35;98420.56;4829938;29;19956;-71
2022/05/14 17:11:57;;;;;;;;;;;;;;;24.14;98.24;98426.78;4829518;29;19954;-71
2022/05/14 17:14:24;;;;;;;;;;;;;;;24.12;98.40;98437.09;4830415;29;19957;-71
2022/05/14 17:16:52;;;;;;;;;;;;;;;24.08;100.00;98439.38;4830099;29;20226;-71
2022/05/14 17:19:19;;;;;;;;;;;;;;;24.07;100.00;98441.44;4826781;29;19959;-71
2022/05/14 17:21:46;;;;;;;;;;;;;;;24.03;100.00;98445.72;4824345;29;19952;-71
2022/05/14 17:24:14;;;;;;;;;;;;;;;23.96;100.00;98446.88;4828100;29;19973;-71
2022/05/14 17:26:41;;;;;;;;;;;;;;;23.94;100.00;98449.41;4829552;29;19950;-70